Pagrindinis puslapis
METAR-TAF:

METAR-TAF

Oro uostai :

Širazas, Iranas

platuma: 29-32N, ilguma: 052-35E, Aukštis: 1486 m

Dabartinis oras

Ataskaita buvo paskelbta 22 minutes, ne 06:30 UTC
Vėjas 4 kt iš Rytų/Šiaurės Rytų
Temperatūra 28°C
Drėgmė 25%
Slėgis 1015 hPa
Matomumas 10 km arba daugiau
nėra debesų žemiau 1500 m ir nėra kamuolinių lietaus debesų

METAR: OISS 240630Z 06004KT CAVOK 28/06 Q1015 A2998

Laikas: 11:22 (06:52 UTC)

Prognozė

Ataskaita buvo paskelbta 1 valandą ir 22 minutes, ne 05:30 UTC
Prognozė galioja nuo 24 metu 06 UTC su 25 metu 12 UTC
Vėjas 7 kt iš Vakarų
Matomumas: 8000 m
Laikinai
nuo 24 metu 09 UTC su 24 metu 17 UTC
Vėjas 16 kt iš Vakarų

TAF: OISS 240530Z 2406/2512 27007KT 8000 NSC TEMPO 2409/2417 27016KT

Orai ataskaitas ir orų prognozės (METAR, TAF).

turimą stotys yra geltonos ir raudonos taškus žemėlapyje.

Perkelti pele per norėdami pamatyti stoties vardą.

Tada spustelėkite, norėdami matyti oro stebėjimo ir prognozės.

Norėdami pakeisti žemėlapį: spustelėkite ant žalios mygtukų su juodo kryžiaus žemyn,; žalią mygtuką su brūkšneliu, jei norite nutolinti; arba žalių rodyklių gretimoms žemėlapius.


METAR-TAF: